createdAt,value
2018-07-28T00:01:22.669Z,62.30
2018-07-28T00:03:52.853Z,61.90
2018-07-28T00:06:22.989Z,61.40
2018-07-28T00:08:53.101Z,61.00
2018-07-28T00:11:23.317Z,60.80
2018-07-28T00:13:53.438Z,61.10
2018-07-28T00:16:23.571Z,61.40
2018-07-28T00:18:53.794Z,61.20
2018-07-28T00:21:23.937Z,61.10
2018-07-28T00:23:54.123Z,61.00
2018-07-28T00:26:24.244Z,60.80
2018-07-28T00:28:54.551Z,60.60
2018-07-28T00:31:24.611Z,59.90
2018-07-28T00:33:55.200Z,59.60
2018-07-28T00:36:25.294Z,59.40
2018-07-28T00:38:55.514Z,59.30
2018-07-28T00:41:25.823Z,59.60
2018-07-28T00:43:56.026Z,61.10
2018-07-28T00:46:26.215Z,59.90
2018-07-28T00:48:56.456Z,60.10
2018-07-28T00:51:26.535Z,60.20
2018-07-28T00:53:56.784Z,60.50
2018-07-28T00:56:26.791Z,60.70
2018-07-28T00:58:57.218Z,60.80
2018-07-28T01:01:27.357Z,60.90
2018-07-28T01:03:57.683Z,61.00
2018-07-28T01:06:27.875Z,61.40
2018-07-28T01:08:57.995Z,61.40
2018-07-28T01:11:28.290Z,61.40
2018-07-28T01:13:58.411Z,61.50
2018-07-28T01:16:28.586Z,61.60
2018-07-28T01:18:58.806Z,61.70
2018-07-28T01:21:28.925Z,61.80
2018-07-28T01:23:59.234Z,63.20
2018-07-28T01:26:29.326Z,63.80
2018-07-28T01:29:05.387Z,63.60
2018-07-28T01:31:35.550Z,64.10
2018-07-28T01:34:06.096Z,64.40
2018-07-28T01:36:36.214Z,64.40
2018-07-28T01:39:10.677Z,64.40
2018-07-28T01:41:41.699Z,64.30
2018-07-28T01:44:12.143Z,64.50
2018-07-28T01:46:42.388Z,65.60
2018-07-28T01:49:12.646Z,65.10
2018-07-28T01:51:42.700Z,65.40
2018-07-28T01:54:12.942Z,65.40
2018-07-28T01:56:43.093Z,65.40
2018-07-28T01:59:13.214Z,65.10
2018-07-28T02:01:43.334Z,64.80
2018-07-28T02:04:13.468Z,64.50
2018-07-28T02:06:43.511Z,64.30
2018-07-28T02:09:13.688Z,64.10
2018-07-28T02:11:43.855Z,64.20
2018-07-28T02:14:13.958Z,64.30
2018-07-28T02:16:44.996Z,64.40
2018-07-28T02:19:15.111Z,64.50
2018-07-28T02:21:45.189Z,64.60
2018-07-28T02:24:15.280Z,64.50
2018-07-28T02:26:45.426Z,64.40
2018-07-28T02:29:15.570Z,64.50
2018-07-28T02:31:45.797Z,64.60
2018-07-28T02:34:15.961Z,64.90
2018-07-28T02:36:45.979Z,65.00
2018-07-28T02:39:16.089Z,65.20
2018-07-28T02:41:46.147Z,65.20
2018-07-28T02:44:17.868Z,65.20
2018-07-28T02:46:48.659Z,65.20
2018-07-28T02:49:18.717Z,65.20
2018-07-28T02:51:48.823Z,65.10
2018-07-28T02:54:37.892Z,65.40
2018-07-28T02:57:08.039Z,65.60
2018-07-28T02:59:38.164Z,66.30
2018-07-28T03:02:08.498Z,66.80
2018-07-28T03:04:39.385Z,67.40
2018-07-28T03:07:09.717Z,68.00
2018-07-28T03:09:39.849Z,68.70
2018-07-28T03:12:10.023Z,69.20
2018-07-28T03:17:09.901Z,70.00
2018-07-28T03:19:40.441Z,70.30
2018-07-28T03:22:10.769Z,70.20
2018-07-28T03:24:40.856Z,70.20
2018-07-28T03:27:10.993Z,70.20
2018-07-28T03:29:41.109Z,70.00
2018-07-28T03:32:11.206Z,69.80
2018-07-28T03:34:41.684Z,69.50
2018-07-28T03:37:11.798Z,69.30
2018-07-28T03:39:41.824Z,69.10
2018-07-28T03:42:11.985Z,69.00
2018-07-28T03:44:42.089Z,68.60
2018-07-28T03:47:12.804Z,69.20
2018-07-28T03:49:42.894Z,68.30
2018-07-28T03:52:12.920Z,68.20
2018-07-28T03:54:42.922Z,68.30
2018-07-28T03:57:13.060Z,68.50
2018-07-28T03:59:43.139Z,68.70
2018-07-28T04:02:13.414Z,68.80
2018-07-28T04:04:46.544Z,68.90
2018-07-28T04:07:16.873Z,69.10
2018-07-28T04:09:47.024Z,69.30
2018-07-28T04:12:17.128Z,69.60
2018-07-28T04:14:47.191Z,69.90
2018-07-28T04:17:17.321Z,70.20
2018-07-28T04:19:47.363Z,70.60
2018-07-28T04:22:17.553Z,70.60
2018-07-28T04:24:47.603Z,70.70
2018-07-28T04:27:17.693Z,70.80
2018-07-28T04:29:47.747Z,70.80
2018-07-28T04:32:17.931Z,70.90
2018-07-28T04:34:48.249Z,71.00
2018-07-28T04:37:18.337Z,70.90
2018-07-28T04:39:48.501Z,71.20
2018-07-28T04:42:18.561Z,71.40
2018-07-28T04:44:48.729Z,71.50
2018-07-28T04:47:18.780Z,71.50
2018-07-28T04:49:48.954Z,71.50
2018-07-28T04:52:18.997Z,71.50
2018-07-28T04:54:49.687Z,71.30
2018-07-28T04:57:19.845Z,71.00
2018-07-28T04:59:50.056Z,71.40
2018-07-28T05:02:20.187Z,70.60
2018-07-28T05:04:50.281Z,70.50
2018-07-28T05:07:20.486Z,70.30
2018-07-28T05:09:50.521Z,70.40
2018-07-28T05:12:20.797Z,70.50
2018-07-28T05:14:51.728Z,70.60
2018-07-28T05:17:22.194Z,70.80
2018-07-28T05:20:04.251Z,71.00
2018-07-28T05:22:34.361Z,71.00
2018-07-28T05:25:04.588Z,71.20
2018-07-28T05:27:34.799Z,71.10
2018-07-28T05:30:06.187Z,71.10
2018-07-28T05:32:36.627Z,71.00
2018-07-28T05:35:09.423Z,70.80
2018-07-28T05:37:39.886Z,70.40
2018-07-28T05:40:10.088Z,70.30
2018-07-28T05:42:40.234Z,70.00
2018-07-28T05:45:10.382Z,69.40
2018-07-28T05:47:40.557Z,68.60
2018-07-28T05:50:10.563Z,68.20
2018-07-28T05:52:40.591Z,67.80
2018-07-28T05:55:10.752Z,67.30
2018-07-28T05:57:40.977Z,66.60
2018-07-28T06:00:11.829Z,66.00
2018-07-28T06:02:42.036Z,65.70
2018-07-28T06:05:12.220Z,65.20
2018-07-28T06:07:42.367Z,65.00
2018-07-28T06:10:13.448Z,64.70
2018-07-28T06:12:43.653Z,64.70
2018-07-28T06:15:13.861Z,64.60
2018-07-28T06:17:44.589Z,64.60
2018-07-28T06:20:14.747Z,64.70
2018-07-28T06:22:44.926Z,64.90
2018-07-28T06:25:15.745Z,65.00
2018-07-28T06:30:16.573Z,65.40
2018-07-28T06:32:46.678Z,66.30
2018-07-28T06:35:16.753Z,65.40
2018-07-28T06:37:46.877Z,65.50
2018-07-28T06:40:17.182Z,65.30
2018-07-28T06:42:47.416Z,65.50
2018-07-28T06:45:18.097Z,65.60
2018-07-28T06:47:48.488Z,65.70
2018-07-28T06:50:18.708Z,65.60
2018-07-28T06:52:48.896Z,65.10
2018-07-28T06:55:19.118Z,64.90
2018-07-28T06:57:49.268Z,64.70
2018-07-28T07:00:19.398Z,64.40
2018-07-28T07:05:20.860Z,63.00
2018-07-28T07:07:51.216Z,62.70
2018-07-28T07:10:21.413Z,62.80
2018-07-28T07:12:51.656Z,62.00
2018-07-28T07:15:21.840Z,62.20
2018-07-28T07:17:51.888Z,61.30
2018-07-28T07:20:23.070Z,60.80
2018-07-28T07:22:53.204Z,60.50
2018-07-28T07:25:23.291Z,60.10
2018-07-28T07:27:53.504Z,59.80
2018-07-28T07:30:23.655Z,59.50
2018-07-28T07:32:53.702Z,59.20
2018-07-28T07:35:23.789Z,59.10
2018-07-28T07:37:54.476Z,58.80
2018-07-28T07:40:24.821Z,58.60
2018-07-28T07:42:55.740Z,58.40
2018-07-28T07:45:25.814Z,58.50
2018-07-28T07:47:55.994Z,57.80
2018-07-28T07:50:26.068Z,57.60
2018-07-28T07:52:56.788Z,57.40
2018-07-28T07:55:28.221Z,57.10
2018-07-28T07:57:58.351Z,56.90
2018-07-28T08:00:29.058Z,56.50
2018-07-28T08:02:59.186Z,56.50
2018-07-28T08:05:29.520Z,56.40
2018-07-28T08:08:00.289Z,56.10
2018-07-28T08:10:30.613Z,55.90
2018-07-28T08:13:00.666Z,55.80
2018-07-28T08:15:30.866Z,55.60
2018-07-28T08:18:01.012Z,55.10
2018-07-28T08:20:31.387Z,55.20
2018-07-28T08:23:01.552Z,55.10
2018-07-28T08:25:31.705Z,55.50
2018-07-28T08:28:01.918Z,54.30
2018-07-28T08:30:32.085Z,54.20
2018-07-28T08:33:02.656Z,54.00
2018-07-28T08:35:32.871Z,53.90
2018-07-28T08:38:03.098Z,53.70
2018-07-28T08:43:03.204Z,52.80
2018-07-28T08:45:33.872Z,52.60
2018-07-28T08:48:04.045Z,51.90
2018-07-28T08:50:34.275Z,51.50
2018-07-28T08:53:04.373Z,51.00
2018-07-28T08:55:34.680Z,50.90
2018-07-28T08:58:04.866Z,50.00
2018-07-28T09:00:34.951Z,49.40
2018-07-28T09:03:05.182Z,48.90
2018-07-28T09:05:35.335Z,48.30
2018-07-28T09:08:05.738Z,48.10
2018-07-28T09:10:35.794Z,47.80
2018-07-28T09:13:06.171Z,47.70
2018-07-28T09:15:36.307Z,47.70
2018-07-28T09:18:06.538Z,47.60
2018-07-28T09:20:36.589Z,47.50
2018-07-28T09:23:06.901Z,47.10
2018-07-28T09:25:36.951Z,46.80
2018-07-28T09:28:07.612Z,46.70
2018-07-28T09:30:37.811Z,46.50
2018-07-28T09:33:07.867Z,46.60
2018-07-28T09:35:38.021Z,45.60
2018-07-28T09:38:08.134Z,44.60
2018-07-28T09:40:38.785Z,44.40
2018-07-28T09:43:09.084Z,44.30
2018-07-28T09:45:39.275Z,44.50
2018-07-28T09:48:09.485Z,45.10
2018-07-28T09:50:39.526Z,44.20
2018-07-28T09:53:10.219Z,44.30
2018-07-28T09:55:41.135Z,44.60
2018-07-28T09:58:11.248Z,45.00
2018-07-28T10:00:46.563Z,45.20
2018-07-28T10:03:16.715Z,44.50
2018-07-28T10:05:47.141Z,44.70
2018-07-28T10:08:17.214Z,44.00
2018-07-28T10:10:47.513Z,43.70
2018-07-28T10:13:17.700Z,43.40
2018-07-28T10:15:47.790Z,43.00
2018-07-28T10:18:17.882Z,43.20
2018-07-28T10:20:47.974Z,43.00
2018-07-28T10:23:18.117Z,42.40
2018-07-28T10:25:48.234Z,42.20
2018-07-28T10:28:18.389Z,41.70
2018-07-28T10:30:49.043Z,41.40
2018-07-28T10:33:19.210Z,41.40
2018-07-28T10:35:49.940Z,41.10
2018-07-28T10:38:20.736Z,41.60
2018-07-28T10:40:50.841Z,41.80
2018-07-28T10:43:21.132Z,41.70
2018-07-28T10:45:51.440Z,41.10
2018-07-28T10:48:21.770Z,40.60
2018-07-28T10:50:51.961Z,40.90
2018-07-28T10:53:22.521Z,41.30
2018-07-28T10:55:52.684Z,41.60
2018-07-28T10:58:22.908Z,42.10
2018-07-28T11:00:53.284Z,41.90
2018-07-28T11:03:23.337Z,41.30
2018-07-28T11:05:53.852Z,41.30
2018-07-28T11:08:24.087Z,40.90
2018-07-28T11:10:54.212Z,41.60
2018-07-28T11:13:24.371Z,41.30
2018-07-28T11:15:54.552Z,40.80
2018-07-28T11:18:24.650Z,40.40
2018-07-28T11:20:54.986Z,40.40
2018-07-28T11:23:42.012Z,40.10
2018-07-28T11:26:12.700Z,40.00
2018-07-28T11:28:42.766Z,40.60
2018-07-28T11:31:29.940Z,40.80
2018-07-28T11:34:18.404Z,40.90
2018-07-28T11:37:05.369Z,40.40
2018-07-28T11:39:52.369Z,40.30
2018-07-28T11:42:39.282Z,39.90
2018-07-28T11:45:15.246Z,39.90
2018-07-28T11:47:45.354Z,40.00
2018-07-28T11:50:15.498Z,39.60
2018-07-28T11:52:45.646Z,39.20
2018-07-28T11:55:15.860Z,39.20
2018-07-28T11:57:46.079Z,38.30
2018-07-28T12:00:16.190Z,38.20
2018-07-28T12:02:46.315Z,37.80
2018-07-28T12:05:16.451Z,37.40
2018-07-28T12:07:47.080Z,37.30
2018-07-28T12:10:17.193Z,36.60
2018-07-28T12:12:47.212Z,36.20
2018-07-28T12:15:17.322Z,36.00
2018-07-28T12:17:47.361Z,36.00
2018-07-28T12:20:17.470Z,35.80
2018-07-28T12:25:17.244Z,35.30
2018-07-28T12:27:47.406Z,34.90
2018-07-28T12:30:18.234Z,34.70
2018-07-28T12:32:48.295Z,34.60
2018-07-28T12:35:18.473Z,34.50
2018-07-28T12:37:48.613Z,34.10
2018-07-28T12:40:18.673Z,33.50
2018-07-28T12:42:48.768Z,33.40
2018-07-28T12:45:19.771Z,33.70
2018-07-28T12:47:49.874Z,34.60
2018-07-28T12:52:50.933Z,33.90
2018-07-28T12:55:21.113Z,34.00
2018-07-28T12:57:51.353Z,34.60
2018-07-28T13:00:21.554Z,33.80
2018-07-28T13:02:51.672Z,34.00
2018-07-28T13:05:22.419Z,34.10
2018-07-28T13:07:52.660Z,34.10
2018-07-28T13:10:22.793Z,33.80
2018-07-28T13:12:53.000Z,33.70
2018-07-28T13:15:23.288Z,34.00
2018-07-28T13:17:53.375Z,34.30
2018-07-28T13:20:23.531Z,34.30
2018-07-28T13:22:53.639Z,34.20
2018-07-28T13:25:23.883Z,35.60
2018-07-28T13:27:54.124Z,35.10
2018-07-28T13:30:24.345Z,34.80
2018-07-28T13:32:54.660Z,33.40
2018-07-28T13:35:24.815Z,32.40
2018-07-28T13:37:55.131Z,31.60
2018-07-28T13:40:25.353Z,31.10
2018-07-28T13:42:55.579Z,30.30
2018-07-28T13:45:25.690Z,30.10
2018-07-28T13:47:56.418Z,29.90
2018-07-28T13:50:26.531Z,29.40
2018-07-28T13:52:57.223Z,28.90
2018-07-28T13:55:28.018Z,28.90
2018-07-28T13:57:58.165Z,29.20
2018-07-28T14:00:28.795Z,29.50
2018-07-28T14:02:59.025Z,29.60
2018-07-28T14:05:29.131Z,29.80
2018-07-28T14:07:59.246Z,29.90
2018-07-28T14:10:29.351Z,29.80
2018-07-28T14:12:59.493Z,29.60
2018-07-28T14:15:29.647Z,29.60
2018-07-28T14:17:59.828Z,29.50
2018-07-28T14:20:29.877Z,29.40
2018-07-28T14:23:00.041Z,29.70
2018-07-28T14:25:30.151Z,29.60
2018-07-28T14:28:00.272Z,29.40
2018-07-28T14:30:30.502Z,29.00
2018-07-28T14:33:00.743Z,28.50
2018-07-28T14:35:30.901Z,28.70
2018-07-28T14:38:01.053Z,28.40
2018-07-28T14:40:31.918Z,28.20
2018-07-28T14:43:02.094Z,28.70
2018-07-28T14:45:32.327Z,28.70
2018-07-28T14:48:02.429Z,28.90
2018-07-28T14:50:32.578Z,28.70
2018-07-28T14:53:03.645Z,28.90
2018-07-28T14:55:33.757Z,28.80
2018-07-28T14:58:03.929Z,28.50
2018-07-28T15:00:34.609Z,28.70
2018-07-28T15:03:04.784Z,28.90
2018-07-28T15:05:34.859Z,29.50
2018-07-28T15:08:05.025Z,29.30
2018-07-28T15:10:35.118Z,29.70
2018-07-28T15:13:05.365Z,29.70
2018-07-28T15:15:35.412Z,29.90
2018-07-28T15:18:06.252Z,30.00
2018-07-28T15:20:36.350Z,30.00
2018-07-28T15:23:06.582Z,30.10
2018-07-28T15:25:36.762Z,30.50
2018-07-28T15:28:06.963Z,31.10
2018-07-28T15:30:37.054Z,31.80
2018-07-28T15:33:07.492Z,32.30
2018-07-28T15:35:37.641Z,32.60
2018-07-28T15:38:07.775Z,33.00
2018-07-28T15:40:37.944Z,33.60
2018-07-28T15:43:08.142Z,33.80
2018-07-28T15:45:38.912Z,34.00
2018-07-28T15:48:09.158Z,34.30
2018-07-28T15:50:40.273Z,34.60
2018-07-28T15:53:10.387Z,34.60
2018-07-28T15:55:40.563Z,34.40
2018-07-28T15:58:10.691Z,34.20
2018-07-28T16:00:40.795Z,34.20
2018-07-28T16:03:10.953Z,35.10
2018-07-28T16:05:41.145Z,34.50
2018-07-28T16:08:11.266Z,34.70
2018-07-28T16:10:41.345Z,34.90
2018-07-28T16:13:11.957Z,34.90
2018-07-28T16:15:43.151Z,34.60
2018-07-28T16:18:13.299Z,34.60
2018-07-28T16:20:43.407Z,34.50
2018-07-28T16:23:13.523Z,34.60
2018-07-28T16:25:43.751Z,34.70
2018-07-28T16:28:14.876Z,34.60
2018-07-28T16:30:44.981Z,34.60
2018-07-28T16:33:15.057Z,34.60
2018-07-28T16:35:45.133Z,34.70
2018-07-28T16:38:15.261Z,34.80
2018-07-28T16:40:45.346Z,35.50
2018-07-28T16:43:15.534Z,36.60
2018-07-28T16:45:45.805Z,38.20
2018-07-28T16:48:15.885Z,39.00
2018-07-28T16:50:46.045Z,39.60
2018-07-28T16:53:16.259Z,40.70
2018-07-28T16:55:47.525Z,40.20
2018-07-28T16:58:17.668Z,40.60
2018-07-28T17:00:47.921Z,40.60
2018-07-28T17:03:18.854Z,39.80
2018-07-28T17:05:49.033Z,38.30
2018-07-28T17:08:19.241Z,38.60
2018-07-28T17:10:49.606Z,38.90
2018-07-28T17:13:19.650Z,39.00
2018-07-28T17:15:49.733Z,39.30
2018-07-28T17:18:20.211Z,39.50
2018-07-28T17:20:51.135Z,39.70
2018-07-28T17:23:21.188Z,39.70
2018-07-28T17:25:51.308Z,40.00
2018-07-28T17:28:21.527Z,40.80
2018-07-28T17:30:51.725Z,40.50
2018-07-28T17:33:21.800Z,40.60
2018-07-28T17:35:51.977Z,40.70
2018-07-28T17:38:22.081Z,40.80
2018-07-28T17:40:52.213Z,40.90
2018-07-28T17:43:22.305Z,41.10
2018-07-28T17:45:52.809Z,41.20
2018-07-28T17:48:23.905Z,41.20
2018-07-28T17:50:54.069Z,41.30
2018-07-28T17:53:25.128Z,41.40
2018-07-28T17:55:55.332Z,41.40
2018-07-28T17:58:25.536Z,41.40
2018-07-28T18:00:56.198Z,41.30
2018-07-28T18:03:26.542Z,41.30
2018-07-28T18:05:56.788Z,41.40
2018-07-28T18:08:27.480Z,41.50
2018-07-28T18:13:27.460Z,42.00
2018-07-28T18:15:57.666Z,42.10
2018-07-28T18:18:27.693Z,42.40
2018-07-28T18:20:58.038Z,42.70
2018-07-28T18:23:28.103Z,43.30
2018-07-28T18:25:58.254Z,44.40
2018-07-28T18:28:28.380Z,45.20
2018-07-28T18:30:58.639Z,46.10
2018-07-28T18:33:28.665Z,46.20
2018-07-28T18:35:59.327Z,46.50
2018-07-28T18:38:29.582Z,46.70
2018-07-28T18:40:59.681Z,46.90
2018-07-28T18:43:29.759Z,47.40
2018-07-28T18:45:59.918Z,47.50
2018-07-28T18:48:29.977Z,47.70
2018-07-28T18:51:00.116Z,48.30
2018-07-28T18:53:30.284Z,48.70
2018-07-28T18:56:00.514Z,48.70
2018-07-28T18:58:30.726Z,49.00
2018-07-28T19:01:00.905Z,49.10
2018-07-28T19:03:31.313Z,50.00
2018-07-28T19:06:01.524Z,50.00
2018-07-28T19:08:31.614Z,50.40
2018-07-28T19:11:01.720Z,50.30
2018-07-28T19:13:37.186Z,50.50
2018-07-28T19:16:07.357Z,51.00
2018-07-28T19:18:42.835Z,51.20
2018-07-28T19:21:12.911Z,51.50
2018-07-28T19:23:48.227Z,51.70
2018-07-28T19:26:18.426Z,51.90
2018-07-28T19:28:53.536Z,52.00
2018-07-28T19:31:24.553Z,52.20
2018-07-28T19:33:54.716Z,52.30
2018-07-28T19:36:30.039Z,52.40
2018-07-28T19:41:34.052Z,52.60
2018-07-28T19:44:04.467Z,52.70
2018-07-28T19:46:34.688Z,52.80
2018-07-28T19:49:05.072Z,52.90
2018-07-28T19:51:35.346Z,53.00
2018-07-28T19:54:05.784Z,53.80
2018-07-28T19:56:35.876Z,53.40
2018-07-28T19:59:06.081Z,53.70
2018-07-28T20:01:36.344Z,53.80
2018-07-28T20:04:06.760Z,54.00
2018-07-28T20:06:36.945Z,54.10
2018-07-28T20:09:09.052Z,54.30
2018-07-28T20:11:39.625Z,55.10
2018-07-28T20:14:10.910Z,54.60
2018-07-28T20:16:40.975Z,54.60
2018-07-28T20:19:11.004Z,54.80
2018-07-28T20:21:41.136Z,55.30
2018-07-28T20:24:11.606Z,55.00
2018-07-28T20:26:41.872Z,55.20
2018-07-28T20:29:12.012Z,55.80
2018-07-28T20:31:42.585Z,55.50
2018-07-28T20:34:13.027Z,55.50
2018-07-28T20:36:43.430Z,55.60
2018-07-28T20:39:13.937Z,55.70
2018-07-28T20:41:44.039Z,55.80
2018-07-28T20:44:14.243Z,55.90
2018-07-28T20:46:44.403Z,55.90
2018-07-28T20:49:14.666Z,56.00
2018-07-28T20:51:44.957Z,56.10
2018-07-28T20:54:15.275Z,56.10
2018-07-28T20:56:45.556Z,56.10
2018-07-28T20:59:16.376Z,56.20
2018-07-28T21:01:47.155Z,56.20
2018-07-28T21:04:18.119Z,56.20
2018-07-28T21:06:48.264Z,56.20
2018-07-28T21:09:18.418Z,56.20
2018-07-28T21:11:48.631Z,56.00
2018-07-28T21:14:19.217Z,56.00
2018-07-28T21:16:49.499Z,56.00
2018-07-28T21:19:19.699Z,56.10
2018-07-28T21:21:55.663Z,56.10
2018-07-28T21:26:55.654Z,56.30
2018-07-28T21:29:25.703Z,56.40
2018-07-28T21:31:55.973Z,56.10
2018-07-28T21:34:26.866Z,56.50
2018-07-28T21:36:56.931Z,56.60
2018-07-28T21:39:27.647Z,56.70
2018-07-28T21:41:58.012Z,57.30
2018-07-28T21:44:28.930Z,56.70
2018-07-28T21:46:59.620Z,56.80
2018-07-28T21:49:29.721Z,56.80
2018-07-28T21:51:59.897Z,56.90
2018-07-28T21:54:29.944Z,56.90
2018-07-28T21:57:00.132Z,56.80
2018-07-28T21:59:30.231Z,56.80
2018-07-28T22:02:00.361Z,56.90
2018-07-28T22:04:34.375Z,56.90
2018-07-28T22:07:04.406Z,57.00
2018-07-28T22:09:34.598Z,57.10
2018-07-28T22:12:04.796Z,57.10
2018-07-28T22:14:34.978Z,57.10
2018-07-28T22:17:05.499Z,57.10
2018-07-28T22:19:35.572Z,57.20
2018-07-28T22:22:05.975Z,57.30
2018-07-28T22:24:36.640Z,57.20
2018-07-28T22:27:06.938Z,57.40
2018-07-28T22:29:37.148Z,57.50
2018-07-28T22:32:07.328Z,57.60
2018-07-28T22:34:37.574Z,57.60
2018-07-28T22:37:07.741Z,57.60
2018-07-28T22:39:37.792Z,57.70
2018-07-28T22:42:07.932Z,57.80
2018-07-28T22:44:39.348Z,57.80
2018-07-28T22:47:09.447Z,57.80
2018-07-28T22:49:39.752Z,57.80
2018-07-28T22:52:10.453Z,57.90
2018-07-28T22:54:40.895Z,58.00
2018-07-28T22:57:11.049Z,58.00
2018-07-28T22:59:41.757Z,57.90
2018-07-28T23:02:11.873Z,58.40
2018-07-28T23:04:41.996Z,58.10
2018-07-28T23:07:12.672Z,58.20
2018-07-28T23:09:42.761Z,58.20
2018-07-28T23:12:13.655Z,58.20
2018-07-28T23:14:44.323Z,58.30
2018-07-28T23:17:14.436Z,58.40
2018-07-28T23:19:44.536Z,58.30
2018-07-28T23:22:14.690Z,58.20
2018-07-28T23:24:44.749Z,58.20
2018-07-28T23:27:14.851Z,58.20
2018-07-28T23:29:44.964Z,58.20
2018-07-28T23:32:15.211Z,58.20
2018-07-28T23:34:45.294Z,58.00
2018-07-28T23:37:15.739Z,58.70
2018-07-28T23:39:45.837Z,58.20
2018-07-28T23:42:16.060Z,58.10
2018-07-28T23:44:46.143Z,58.20
2018-07-28T23:47:16.257Z,58.20
2018-07-28T23:49:46.307Z,58.30
2018-07-28T23:52:16.408Z,58.30
2018-07-28T23:54:46.623Z,58.40
2018-07-28T23:57:16.766Z,58.50
2018-07-28T23:59:46.901Z,59.50
